sensor_id;sensor_type;location;lat;lon;timestamp;P1;durP1;ratioP1;P2;durP2;ratioP2
51877;SDS011;37911;51.526;11.536;2024-01-10T00:01:38;13.02;;;11.82;;
51877;SDS011;37911;51.526;11.536;2024-01-10T00:04:41;15.23;;;10.07;;
51877;SDS011;37911;51.526;11.536;2024-01-10T00:07:45;24.33;;;9.68;;
51877;SDS011;37911;51.526;11.536;2024-01-10T00:10:48;18.92;;;14.20;;
51877;SDS011;37911;51.526;11.536;2024-01-10T00:13:51;18.30;;;11.00;;
51877;SDS011;37911;51.526;11.536;2024-01-10T00:17:02;14.18;;;11.90;;
51877;SDS011;37911;51.526;11.536;2024-01-10T00:20:06;17.08;;;13.15;;
51877;SDS011;37911;51.526;11.536;2024-01-10T00:23:10;12.35;;;11.10;;
51877;SDS011;37911;51.526;11.536;2024-01-10T00:26:14;12.70;;;10.95;;
51877;SDS011;37911;51.526;11.536;2024-01-10T00:29:17;14.65;;;13.25;;
51877;SDS011;37911;51.526;11.536;2024-01-10T00:32:23;12.23;;;8.60;;
51877;SDS011;37911;51.526;11.536;2024-01-10T00:35:26;14.07;;;10.63;;
51877;SDS011;37911;51.526;11.536;2024-01-10T00:38:29;19.88;;;10.32;;
51877;SDS011;37911;51.526;11.536;2024-01-10T00:41:33;15.55;;;13.95;;
51877;SDS011;37911;51.526;11.536;2024-01-10T00:44:36;16.42;;;10.95;;
51877;SDS011;37911;51.526;11.536;2024-01-10T00:47:42;20.00;;;10.55;;
51877;SDS011;37911;51.526;11.536;2024-01-10T00:50:45;19.05;;;13.90;;
51877;SDS011;37911;51.526;11.536;2024-01-10T00:53:49;13.50;;;10.80;;
51877;SDS011;37911;51.526;11.536;2024-01-10T00:56:52;16.38;;;13.48;;
51877;SDS011;37911;51.526;11.536;2024-01-10T00:59:55;12.48;;;9.40;;
51877;SDS011;37911;51.526;11.536;2024-01-10T01:06:05;15.00;;;12.32;;
51877;SDS011;37911;51.526;11.536;2024-01-10T01:09:09;15.38;;;11.02;;
51877;SDS011;37911;51.526;11.536;2024-01-10T01:12:13;14.10;;;9.57;;
51877;SDS011;37911;51.526;11.536;2024-01-10T01:15:17;13.55;;;10.60;;
51877;SDS011;37911;51.526;11.536;2024-01-10T01:18:23;15.43;;;9.18;;
51877;SDS011;37911;51.526;11.536;2024-01-10T01:21:26;19.95;;;14.07;;
51877;SDS011;37911;51.526;11.536;2024-01-10T01:24:29;18.48;;;12.02;;
51877;SDS011;37911;51.526;11.536;2024-01-10T01:27:33;17.25;;;11.18;;
51877;SDS011;37911;51.526;11.536;2024-01-10T01:30:37;14.07;;;9.05;;
51877;SDS011;37911;51.526;11.536;2024-01-10T01:33:43;19.95;;;13.90;;
51877;SDS011;37911;51.526;11.536;2024-01-10T01:36:47;19.52;;;12.55;;
51877;SDS011;37911;51.526;11.536;2024-01-10T01:39:51;13.43;;;9.98;;
51877;SDS011;37911;51.526;11.536;2024-01-10T01:42:55;14.85;;;9.15;;
51877;SDS011;37911;51.526;11.536;2024-01-10T01:45:58;12.75;;;8.77;;
51877;SDS011;37911;51.526;11.536;2024-01-10T01:49:04;16.02;;;11.60;;
51877;SDS011;37911;51.526;11.536;2024-01-10T01:52:07;13.45;;;9.80;;
51877;SDS011;37911;51.526;11.536;2024-01-10T01:55:11;22.65;;;14.63;;
51877;SDS011;37911;51.526;11.536;2024-01-10T01:58:16;15.23;;;9.75;;
51877;SDS011;37911;51.526;11.536;2024-01-10T02:01:19;23.73;;;10.75;;
51877;SDS011;37911;51.526;11.536;2024-01-10T02:04:25;14.85;;;11.45;;
51877;SDS011;37911;51.526;11.536;2024-01-10T02:07:32;16.83;;;7.88;;
51877;SDS011;37911;51.526;11.536;2024-01-10T02:10:35;14.07;;;9.93;;
51877;SDS011;37911;51.526;11.536;2024-01-10T02:13:39;18.23;;;11.13;;
51877;SDS011;37911;51.526;11.536;2024-01-10T02:16:43;14.63;;;10.27;;
51877;SDS011;37911;51.526;11.536;2024-01-10T02:19:49;15.88;;;11.63;;
51877;SDS011;37911;51.526;11.536;2024-01-10T02:22:52;10.70;;;9.65;;
51877;SDS011;37911;51.526;11.536;2024-01-10T02:25:58;14.25;;;10.88;;
51877;SDS011;37911;51.526;11.536;2024-01-10T02:29:01;12.48;;;9.80;;
51877;SDS011;37911;51.526;11.536;2024-01-10T02:32:05;19.13;;;14.20;;
51877;SDS011;37911;51.526;11.536;2024-01-10T02:35:09;16.55;;;9.32;;
51877;SDS011;37911;51.526;11.536;2024-01-10T02:38:12;16.75;;;11.63;;
51877;SDS011;37911;51.526;11.536;2024-01-10T02:41:18;15.05;;;12.77;;
51877;SDS011;37911;51.526;11.536;2024-01-10T02:44:21;14.40;;;9.73;;
51877;SDS011;37911;51.526;11.536;2024-01-10T02:47:25;11.40;;;9.52;;
51877;SDS011;37911;51.526;11.536;2024-01-10T02:50:29;17.63;;;12.80;;
51877;SDS011;37911;51.526;11.536;2024-01-10T02:53:32;15.40;;;12.43;;
51877;SDS011;37911;51.526;11.536;2024-01-10T02:56:38;14.82;;;9.32;;
51877;SDS011;37911;51.526;11.536;2024-01-10T02:59:42;13.15;;;9.73;;
51877;SDS011;37911;51.526;11.536;2024-01-10T03:02:45;15.52;;;11.70;;
51877;SDS011;37911;51.526;11.536;2024-01-10T03:05:48;14.80;;;12.05;;
51877;SDS011;37911;51.526;11.536;2024-01-10T03:08:51;14.30;;;12.05;;
51877;SDS011;37911;51.526;11.536;2024-01-10T03:11:57;15.02;;;10.65;;
51877;SDS011;37911;51.526;11.536;2024-01-10T03:15:01;11.57;;;9.75;;
51877;SDS011;37911;51.526;11.536;2024-01-10T03:18:04;16.02;;;11.02;;
51877;SDS011;37911;51.526;11.536;2024-01-10T03:24:11;16.38;;;9.48;;
51877;SDS011;37911;51.526;11.536;2024-01-10T03:27:17;16.08;;;8.82;;
51877;SDS011;37911;51.526;11.536;2024-01-10T03:30:20;15.45;;;11.18;;
51877;SDS011;37911;51.526;11.536;2024-01-10T03:33:24;12.38;;;9.10;;
51877;SDS011;37911;51.526;11.536;2024-01-10T03:36:27;13.38;;;8.63;;
51877;SDS011;37911;51.526;11.536;2024-01-10T03:39:31;14.20;;;9.00;;
51877;SDS011;37911;51.526;11.536;2024-01-10T03:42:36;14.00;;;11.18;;
51877;SDS011;37911;51.526;11.536;2024-01-10T03:45:40;15.00;;;11.35;;
51877;SDS011;37911;51.526;11.536;2024-01-10T03:48:44;22.98;;;12.90;;
51877;SDS011;37911;51.526;11.536;2024-01-10T03:51:52;16.75;;;10.65;;
51877;SDS011;37911;51.526;11.536;2024-01-10T03:54:55;19.23;;;13.05;;
51877;SDS011;37911;51.526;11.536;2024-01-10T03:58:01;15.80;;;10.48;;
51877;SDS011;37911;51.526;11.536;2024-01-10T04:01:05;16.23;;;10.90;;
51877;SDS011;37911;51.526;11.536;2024-01-10T04:04:09;14.40;;;11.80;;
51877;SDS011;37911;51.526;11.536;2024-01-10T04:07:12;20.30;;;11.52;;
51877;SDS011;37911;51.526;11.536;2024-01-10T04:10:15;22.05;;;11.18;;
51877;SDS011;37911;51.526;11.536;2024-01-10T04:13:21;20.25;;;15.75;;
51877;SDS011;37911;51.526;11.536;2024-01-10T04:16:25;16.15;;;12.73;;
51877;SDS011;37911;51.526;11.536;2024-01-10T04:19:28;18.60;;;14.27;;
51877;SDS011;37911;51.526;11.536;2024-01-10T04:22:32;18.20;;;13.15;;
51877;SDS011;37911;51.526;11.536;2024-01-10T04:25:35;19.17;;;12.55;;
51877;SDS011;37911;51.526;11.536;2024-01-10T04:28:41;9.90;;;8.05;;
51877;SDS011;37911;51.526;11.536;2024-01-10T04:31:44;18.35;;;13.10;;
51877;SDS011;37911;51.526;11.536;2024-01-10T04:34:48;15.40;;;13.80;;
51877;SDS011;37911;51.526;11.536;2024-01-10T04:37:51;15.02;;;12.98;;
51877;SDS011;37911;51.526;11.536;2024-01-10T04:40:54;25.13;;;12.52;;
51877;SDS011;37911;51.526;11.536;2024-01-10T04:44:00;18.13;;;14.15;;
51877;SDS011;37911;51.526;11.536;2024-01-10T04:47:04;14.13;;;8.10;;
51877;SDS011;37911;51.526;11.536;2024-01-10T04:50:08;13.57;;;10.32;;
51877;SDS011;37911;51.526;11.536;2024-01-10T04:53:11;13.10;;;10.63;;
51877;SDS011;37911;51.526;11.536;2024-01-10T04:56:15;18.33;;;13.23;;
51877;SDS011;37911;51.526;11.536;2024-01-10T04:59:21;10.40;;;9.63;;
51877;SDS011;37911;51.526;11.536;2024-01-10T05:02:24;21.35;;;15.05;;
51877;SDS011;37911;51.526;11.536;2024-01-10T05:05:27;12.55;;;11.07;;
51877;SDS011;37911;51.526;11.536;2024-01-10T05:08:31;13.98;;;10.10;;
51877;SDS011;37911;51.526;11.536;2024-01-10T05:11:34;13.93;;;12.27;;
51877;SDS011;37911;51.526;11.536;2024-01-10T05:14:41;15.32;;;11.73;;
51877;SDS011;37911;51.526;11.536;2024-01-10T05:17:44;14.52;;;10.35;;
51877;SDS011;37911;51.526;11.536;2024-01-10T05:20:47;16.95;;;14.27;;
51877;SDS011;37911;51.526;11.536;2024-01-10T05:23:51;13.90;;;12.18;;
51877;SDS011;37911;51.526;11.536;2024-01-10T05:26:54;13.20;;;10.80;;
51877;SDS011;37911;51.526;11.536;2024-01-10T05:30:00;19.25;;;12.23;;
51877;SDS011;37911;51.526;11.536;2024-01-10T05:33:07;16.70;;;13.02;;
51877;SDS011;37911;51.526;11.536;2024-01-10T05:36:11;21.58;;;13.35;;
51877;SDS011;37911;51.526;11.536;2024-01-10T05:39:14;16.88;;;10.32;;
51877;SDS011;37911;51.526;11.536;2024-01-10T05:42:20;13.80;;;11.18;;
51877;SDS011;37911;51.526;11.536;2024-01-10T05:45:26;16.33;;;12.13;;
51877;SDS011;37911;51.526;11.536;2024-01-10T05:48:30;22.45;;;17.50;;
51877;SDS011;37911;51.526;11.536;2024-01-10T05:51:33;17.00;;;13.35;;
51877;SDS011;37911;51.526;11.536;2024-01-10T05:54:38;17.77;;;16.30;;
51877;SDS011;37911;51.526;11.536;2024-01-10T05:57:42;12.85;;;10.10;;
51877;SDS011;37911;51.526;11.536;2024-01-10T06:00:47;21.42;;;19.48;;
51877;SDS011;37911;51.526;11.536;2024-01-10T06:03:52;52.55;;;33.47;;
51877;SDS011;37911;51.526;11.536;2024-01-10T06:06:55;20.38;;;18.00;;
51877;SDS011;37911;51.526;11.536;2024-01-10T06:10:00;33.88;;;19.77;;
51877;SDS011;37911;51.526;11.536;2024-01-10T06:13:04;21.67;;;13.65;;
51877;SDS011;37911;51.526;11.536;2024-01-10T06:19:13;12.32;;;10.30;;
51877;SDS011;37911;51.526;11.536;2024-01-10T06:22:16;11.82;;;10.10;;
51877;SDS011;37911;51.526;11.536;2024-01-10T06:25:25;14.68;;;11.98;;
51877;SDS011;37911;51.526;11.536;2024-01-10T06:28:29;15.85;;;11.52;;
51877;SDS011;37911;51.526;11.536;2024-01-10T06:31:35;15.88;;;13.95;;
51877;SDS011;37911;51.526;11.536;2024-01-10T06:34:38;16.45;;;13.05;;
51877;SDS011;37911;51.526;11.536;2024-01-10T06:37:42;15.40;;;12.40;;
51877;SDS011;37911;51.526;11.536;2024-01-10T06:40:45;16.60;;;11.90;;
51877;SDS011;37911;51.526;11.536;2024-01-10T06:43:49;18.35;;;14.48;;
51877;SDS011;37911;51.526;11.536;2024-01-10T06:46:55;16.55;;;12.40;;
51877;SDS011;37911;51.526;11.536;2024-01-10T06:49:58;21.33;;;15.77;;
51877;SDS011;37911;51.526;11.536;2024-01-10T06:53:01;13.02;;;10.70;;
51877;SDS011;37911;51.526;11.536;2024-01-10T06:56:05;16.55;;;12.82;;
51877;SDS011;37911;51.526;11.536;2024-01-10T06:59:09;18.45;;;11.02;;
51877;SDS011;37911;51.526;11.536;2024-01-10T07:02:15;27.25;;;12.68;;
51877;SDS011;37911;51.526;11.536;2024-01-10T07:05:19;14.70;;;9.85;;
51877;SDS011;37911;51.526;11.536;2024-01-10T07:08:22;14.10;;;12.35;;
51877;SDS011;37911;51.526;11.536;2024-01-10T07:11:26;21.33;;;12.95;;
51877;SDS011;37911;51.526;11.536;2024-01-10T07:14:30;17.10;;;12.30;;
51877;SDS011;37911;51.526;11.536;2024-01-10T07:17:35;18.63;;;13.90;;
51877;SDS011;37911;51.526;11.536;2024-01-10T07:20:40;17.40;;;13.18;;
51877;SDS011;37911;51.526;11.536;2024-01-10T07:23:44;24.42;;;12.85;;
51877;SDS011;37911;51.526;11.536;2024-01-10T07:26:49;21.70;;;15.73;;
51877;SDS011;37911;51.526;11.536;2024-01-10T07:29:53;17.50;;;13.48;;
51877;SDS011;37911;51.526;11.536;2024-01-10T07:33:00;22.13;;;13.63;;
51877;SDS011;37911;51.526;11.536;2024-01-10T07:36:04;15.05;;;13.45;;
51877;SDS011;37911;51.526;11.536;2024-01-10T07:39:07;14.57;;;11.40;;
51877;SDS011;37911;51.526;11.536;2024-01-10T07:42:11;13.63;;;12.32;;
51877;SDS011;37911;51.526;11.536;2024-01-10T07:45:14;21.33;;;16.48;;
51877;SDS011;37911;51.526;11.536;2024-01-10T07:48:20;16.48;;;13.02;;
51877;SDS011;37911;51.526;11.536;2024-01-10T07:51:23;19.92;;;17.58;;
51877;SDS011;37911;51.526;11.536;2024-01-10T07:54:26;15.45;;;14.13;;
51877;SDS011;37911;51.526;11.536;2024-01-10T07:57:32;13.57;;;12.10;;
51877;SDS011;37911;51.526;11.536;2024-01-10T08:00:36;20.85;;;12.68;;
51877;SDS011;37911;51.526;11.536;2024-01-10T08:03:42;18.35;;;13.93;;
51877;SDS011;37911;51.526;11.536;2024-01-10T08:06:46;14.25;;;12.13;;
51877;SDS011;37911;51.526;11.536;2024-01-10T08:09:49;24.13;;;21.45;;
51877;SDS011;37911;51.526;11.536;2024-01-10T08:12:52;17.40;;;15.23;;
51877;SDS011;37911;51.526;11.536;2024-01-10T08:15:56;30.33;;;20.13;;
51877;SDS011;37911;51.526;11.536;2024-01-10T08:19:03;18.63;;;14.38;;
51877;SDS011;37911;51.526;11.536;2024-01-10T08:22:07;15.10;;;13.52;;
51877;SDS011;37911;51.526;11.536;2024-01-10T08:25:10;14.93;;;13.25;;
51877;SDS011;37911;51.526;11.536;2024-01-10T08:28:15;18.95;;;15.68;;
51877;SDS011;37911;51.526;11.536;2024-01-10T08:31:19;20.02;;;17.38;;
51877;SDS011;37911;51.526;11.536;2024-01-10T08:34:25;21.48;;;13.60;;
51877;SDS011;37911;51.526;11.536;2024-01-10T08:37:28;28.60;;;15.98;;
51877;SDS011;37911;51.526;11.536;2024-01-10T08:40:32;16.98;;;15.18;;
51877;SDS011;37911;51.526;11.536;2024-01-10T08:43:35;18.10;;;15.57;;
51877;SDS011;37911;51.526;11.536;2024-01-10T08:46:39;16.33;;;14.15;;
51877;SDS011;37911;51.526;11.536;2024-01-10T08:49:45;23.98;;;16.63;;
51877;SDS011;37911;51.526;11.536;2024-01-10T08:52:48;22.67;;;12.40;;
51877;SDS011;37911;51.526;11.536;2024-01-10T08:55:52;19.10;;;13.40;;
51877;SDS011;37911;51.526;11.536;2024-01-10T08:58:55;21.40;;;16.33;;
51877;SDS011;37911;51.526;11.536;2024-01-10T09:01:59;19.95;;;15.98;;
51877;SDS011;37911;51.526;11.536;2024-01-10T09:05:08;32.08;;;20.08;;
51877;SDS011;37911;51.526;11.536;2024-01-10T09:08:11;51.30;;;35.38;;
51877;SDS011;37911;51.526;11.536;2024-01-10T09:11:15;35.88;;;18.48;;
51877;SDS011;37911;51.526;11.536;2024-01-10T09:14:19;17.88;;;13.13;;
51877;SDS011;37911;51.526;11.536;2024-01-10T09:17:22;25.45;;;16.25;;
51877;SDS011;37911;51.526;11.536;2024-01-10T09:20:28;23.92;;;17.05;;
51877;SDS011;37911;51.526;11.536;2024-01-10T09:23:32;20.38;;;15.43;;
51877;SDS011;37911;51.526;11.536;2024-01-10T09:26:35;20.17;;;14.45;;
51877;SDS011;37911;51.526;11.536;2024-01-10T09:29:38;27.40;;;18.20;;
51877;SDS011;37911;51.526;11.536;2024-01-10T09:32:42;27.73;;;17.58;;
51877;SDS011;37911;51.526;11.536;2024-01-10T09:35:48;24.80;;;16.23;;
51877;SDS011;37911;51.526;11.536;2024-01-10T09:38:52;29.38;;;17.48;;
51877;SDS011;37911;51.526;11.536;2024-01-10T09:41:55;32.25;;;23.40;;
51877;SDS011;37911;51.526;11.536;2024-01-10T09:44:58;24.38;;;18.10;;
51877;SDS011;37911;51.526;11.536;2024-01-10T09:48:03;21.98;;;16.83;;
51877;SDS011;37911;51.526;11.536;2024-01-10T09:51:10;30.13;;;16.67;;
51877;SDS011;37911;51.526;11.536;2024-01-10T09:54:15;27.92;;;21.20;;
51877;SDS011;37911;51.526;11.536;2024-01-10T09:57:20;30.98;;;19.83;;
51877;SDS011;37911;51.526;11.536;2024-01-10T10:00:24;24.33;;;15.35;;
51877;SDS011;37911;51.526;11.536;2024-01-10T10:03:28;28.95;;;17.98;;
51877;SDS011;37911;51.526;11.536;2024-01-10T10:06:33;29.55;;;19.90;;
51877;SDS011;37911;51.526;11.536;2024-01-10T10:09:37;28.27;;;16.65;;
51877;SDS011;37911;51.526;11.536;2024-01-10T10:12:43;30.58;;;18.52;;
51877;SDS011;37911;51.526;11.536;2024-01-10T10:15:48;26.67;;;19.83;;
51877;SDS011;37911;51.526;11.536;2024-01-10T10:19:00;23.13;;;18.02;;
51877;SDS011;37911;51.526;11.536;2024-01-10T10:22:09;31.00;;;20.50;;
51877;SDS011;37911;51.526;11.536;2024-01-10T10:25:15;29.52;;;19.42;;
51877;SDS011;37911;51.526;11.536;2024-01-10T10:28:18;28.60;;;19.63;;
51877;SDS011;37911;51.526;11.536;2024-01-10T10:31:22;30.60;;;20.45;;
51877;SDS011;37911;51.526;11.536;2024-01-10T10:34:30;26.98;;;20.70;;
51877;SDS011;37911;51.526;11.536;2024-01-10T10:37:36;27.58;;;17.85;;
51877;SDS011;37911;51.526;11.536;2024-01-10T10:40:39;26.30;;;17.23;;
51877;SDS011;37911;51.526;11.536;2024-01-10T10:43:43;27.67;;;18.55;;
51877;SDS011;37911;51.526;11.536;2024-01-10T10:46:47;21.42;;;17.42;;
51877;SDS011;37911;51.526;11.536;2024-01-10T10:49:53;24.35;;;17.98;;
51877;SDS011;37911;51.526;11.536;2024-01-10T10:53:00;29.23;;;23.63;;
51877;SDS011;37911;51.526;11.536;2024-01-10T10:56:06;23.40;;;16.58;;
51877;SDS011;37911;51.526;11.536;2024-01-10T10:59:10;24.90;;;15.65;;
51877;SDS011;37911;51.526;11.536;2024-01-10T11:02:16;28.88;;;18.92;;
51877;SDS011;37911;51.526;11.536;2024-01-10T11:05:24;34.28;;;23.10;;
51877;SDS011;37911;51.526;11.536;2024-01-10T11:08:32;32.83;;;20.73;;
51877;SDS011;37911;51.526;11.536;2024-01-10T11:11:44;32.15;;;20.35;;
51877;SDS011;37911;51.526;11.536;2024-01-10T11:15:07;29.63;;;18.80;;
51877;SDS011;37911;51.526;11.536;2024-01-10T11:18:29;42.40;;;29.70;;
51877;SDS011;37911;51.526;11.536;2024-01-10T11:25:17;33.80;;;23.58;;
51877;SDS011;37911;51.526;11.536;2024-01-10T11:28:20;29.27;;;19.38;;
51877;SDS011;37911;51.526;11.536;2024-01-10T11:31:28;26.23;;;20.35;;
51877;SDS011;37911;51.526;11.536;2024-01-10T11:34:32;26.17;;;19.67;;
51877;SDS011;37911;51.526;11.536;2024-01-10T11:37:42;24.85;;;18.65;;
51877;SDS011;37911;51.526;11.536;2024-01-10T11:40:49;28.55;;;20.83;;
51877;SDS011;37911;51.526;11.536;2024-01-10T11:47:28;33.75;;;20.13;;
51877;SDS011;37911;51.526;11.536;2024-01-10T11:50:32;34.45;;;20.00;;
51877;SDS011;37911;51.526;11.536;2024-01-10T11:53:39;31.92;;;21.85;;
51877;SDS011;37911;51.526;11.536;2024-01-10T11:56:49;30.52;;;19.75;;
51877;SDS011;37911;51.526;11.536;2024-01-10T11:59:53;30.90;;;20.30;;
51877;SDS011;37911;51.526;11.536;2024-01-10T12:03:01;28.35;;;21.15;;
51877;SDS011;37911;51.526;11.536;2024-01-10T12:06:05;27.95;;;19.30;;
51877;SDS011;37911;51.526;11.536;2024-01-10T12:09:11;26.83;;;19.10;;
51877;SDS011;37911;51.526;11.536;2024-01-10T12:12:18;28.83;;;18.13;;
51877;SDS011;37911;51.526;11.536;2024-01-10T12:15:22;28.05;;;20.33;;
51877;SDS011;37911;51.526;11.536;2024-01-10T12:18:25;27.60;;;20.08;;
51877;SDS011;37911;51.526;11.536;2024-01-10T12:21:29;29.08;;;18.98;;
51877;SDS011;37911;51.526;11.536;2024-01-10T12:24:32;25.13;;;19.73;;
51877;SDS011;37911;51.526;11.536;2024-01-10T12:27:38;26.58;;;18.17;;
51877;SDS011;37911;51.526;11.536;2024-01-10T12:30:41;27.27;;;18.80;;
51877;SDS011;37911;51.526;11.536;2024-01-10T12:33:45;35.08;;;20.10;;
51877;SDS011;37911;51.526;11.536;2024-01-10T12:36:51;32.58;;;19.27;;
51877;SDS011;37911;51.526;11.536;2024-01-10T12:39:57;28.25;;;19.45;;
51877;SDS011;37911;51.526;11.536;2024-01-10T12:43:06;30.23;;;18.27;;
51877;SDS011;37911;51.526;11.536;2024-01-10T12:46:11;38.67;;;20.48;;
51877;SDS011;37911;51.526;11.536;2024-01-10T12:49:14;71.25;;;36.13;;
51877;SDS011;37911;51.526;11.536;2024-01-10T12:52:18;59.05;;;29.00;;
51877;SDS011;37911;51.526;11.536;2024-01-10T12:55:25;81.65;;;42.78;;
51877;SDS011;37911;51.526;11.536;2024-01-10T12:58:31;47.53;;;29.23;;
51877;SDS011;37911;51.526;11.536;2024-01-10T13:01:35;33.53;;;18.92;;
51877;SDS011;37911;51.526;11.536;2024-01-10T13:04:39;43.75;;;25.70;;
51877;SDS011;37911;51.526;11.536;2024-01-10T13:07:42;33.80;;;22.02;;
51877;SDS011;37911;51.526;11.536;2024-01-10T13:10:47;35.28;;;21.10;;
51877;SDS011;37911;51.526;11.536;2024-01-10T13:13:53;34.83;;;20.80;;
51877;SDS011;37911;51.526;11.536;2024-01-10T13:16:56;31.65;;;18.65;;
51877;SDS011;37911;51.526;11.536;2024-01-10T13:20:01;29.13;;;19.77;;
51877;SDS011;37911;51.526;11.536;2024-01-10T13:23:05;30.20;;;20.02;;
51877;SDS011;37911;51.526;11.536;2024-01-10T13:26:09;34.47;;;21.73;;
51877;SDS011;37911;51.526;11.536;2024-01-10T13:29:15;28.27;;;19.63;;
51877;SDS011;37911;51.526;11.536;2024-01-10T13:32:18;37.83;;;21.70;;
51877;SDS011;37911;51.526;11.536;2024-01-10T13:35:22;33.45;;;19.75;;
51877;SDS011;37911;51.526;11.536;2024-01-10T13:38:25;30.95;;;18.13;;
51877;SDS011;37911;51.526;11.536;2024-01-10T13:44:34;30.60;;;19.55;;
51877;SDS011;37911;51.526;11.536;2024-01-10T13:47:39;30.92;;;20.85;;
51877;SDS011;37911;51.526;11.536;2024-01-10T13:50:42;32.22;;;19.38;;
51877;SDS011;37911;51.526;11.536;2024-01-10T13:53:46;31.70;;;19.85;;
51877;SDS011;37911;51.526;11.536;2024-01-10T13:59:55;25.90;;;17.70;;
51877;SDS011;37911;51.526;11.536;2024-01-10T14:02:58;30.77;;;18.35;;
51877;SDS011;37911;51.526;11.536;2024-01-10T14:06:02;32.60;;;20.40;;
51877;SDS011;37911;51.526;11.536;2024-01-10T14:09:05;46.72;;;29.15;;
51877;SDS011;37911;51.526;11.536;2024-01-10T14:12:10;35.10;;;22.73;;
51877;SDS011;37911;51.526;11.536;2024-01-10T14:15:16;31.65;;;18.65;;
51877;SDS011;37911;51.526;11.536;2024-01-10T14:18:20;27.20;;;23.17;;
51877;SDS011;37911;51.526;11.536;2024-01-10T14:21:24;35.67;;;21.30;;
51877;SDS011;37911;51.526;11.536;2024-01-10T14:27:33;24.33;;;18.98;;
51877;SDS011;37911;51.526;11.536;2024-01-10T14:30:39;25.58;;;20.55;;
51877;SDS011;37911;51.526;11.536;2024-01-10T14:33:43;37.13;;;22.02;;
51877;SDS011;37911;51.526;11.536;2024-01-10T14:39:49;28.80;;;16.73;;
51877;SDS011;37911;51.526;11.536;2024-01-10T14:45:58;23.02;;;18.60;;
51877;SDS011;37911;51.526;11.536;2024-01-10T14:49:02;27.15;;;20.80;;
51877;SDS011;37911;51.526;11.536;2024-01-10T14:55:09;23.27;;;15.40;;
51877;SDS011;37911;51.526;11.536;2024-01-10T15:01:20;28.13;;;21.02;;
51877;SDS011;37911;51.526;11.536;2024-01-10T15:04:23;31.98;;;19.02;;
51877;SDS011;37911;51.526;11.536;2024-01-10T15:07:27;29.83;;;20.58;;
51877;SDS011;37911;51.526;11.536;2024-01-10T15:13:34;27.02;;;16.38;;
51877;SDS011;37911;51.526;11.536;2024-01-10T15:19:43;44.20;;;30.38;;
51877;SDS011;37911;51.526;11.536;2024-01-10T15:22:47;35.63;;;25.63;;
51877;SDS011;37911;51.526;11.536;2024-01-10T15:28:53;29.13;;;21.83;;
51877;SDS011;37911;51.526;11.536;2024-01-10T15:32:01;28.85;;;21.30;;
51877;SDS011;37911;51.526;11.536;2024-01-10T15:35:05;27.88;;;21.70;;
51877;SDS011;37911;51.526;11.536;2024-01-10T15:38:09;32.97;;;19.75;;
51877;SDS011;37911;51.526;11.536;2024-01-10T15:44:15;32.17;;;20.30;;
51877;SDS011;37911;51.526;11.536;2024-01-10T15:47:22;28.88;;;19.98;;
51877;SDS011;37911;51.526;11.536;2024-01-10T15:50:25;30.75;;;18.75;;
51877;SDS011;37911;51.526;11.536;2024-01-10T15:53:29;35.60;;;21.70;;
51877;SDS011;37911;51.526;11.536;2024-01-10T15:56:33;37.60;;;23.48;;
51877;SDS011;37911;51.526;11.536;2024-01-10T15:59:40;30.25;;;25.75;;
51877;SDS011;37911;51.526;11.536;2024-01-10T16:05:49;19.42;;;14.80;;
51877;SDS011;37911;51.526;11.536;2024-01-10T16:08:53;36.95;;;22.05;;
51877;SDS011;37911;51.526;11.536;2024-01-10T16:15:00;32.17;;;21.15;;
51877;SDS011;37911;51.526;11.536;2024-01-10T16:18:07;32.38;;;23.75;;
51877;SDS011;37911;51.526;11.536;2024-01-10T16:21:11;30.92;;;22.73;;
51877;SDS011;37911;51.526;11.536;2024-01-10T16:24:14;39.55;;;25.92;;
51877;SDS011;37911;51.526;11.536;2024-01-10T16:30:21;35.47;;;21.40;;
51877;SDS011;37911;51.526;11.536;2024-01-10T16:36:30;24.95;;;18.17;;
51877;SDS011;37911;51.526;11.536;2024-01-10T16:42:37;23.83;;;16.83;;
51877;SDS011;37911;51.526;11.536;2024-01-10T16:45:40;25.60;;;20.63;;
51877;SDS011;37911;51.526;11.536;2024-01-10T16:51:49;26.15;;;19.73;;
51877;SDS011;37911;51.526;11.536;2024-01-10T16:54:53;34.67;;;20.88;;
51877;SDS011;37911;51.526;11.536;2024-01-10T16:57:57;31.33;;;20.65;;
51877;SDS011;37911;51.526;11.536;2024-01-10T17:01:00;36.22;;;20.95;;
51877;SDS011;37911;51.526;11.536;2024-01-10T17:04:06;27.65;;;21.30;;
51877;SDS011;37911;51.526;11.536;2024-01-10T17:07:10;26.75;;;19.35;;
51877;SDS011;37911;51.526;11.536;2024-01-10T17:10:13;34.60;;;24.77;;
51877;SDS011;37911;51.526;11.536;2024-01-10T17:13:17;42.63;;;29.05;;
51877;SDS011;37911;51.526;11.536;2024-01-10T17:16:21;36.63;;;27.23;;
51877;SDS011;37911;51.526;11.536;2024-01-10T17:19:27;34.08;;;25.15;;
51877;SDS011;37911;51.526;11.536;2024-01-10T17:22:31;33.17;;;21.88;;
51877;SDS011;37911;51.526;11.536;2024-01-10T17:25:35;36.72;;;20.70;;
51877;SDS011;37911;51.526;11.536;2024-01-10T17:28:38;35.03;;;22.15;;
51877;SDS011;37911;51.526;11.536;2024-01-10T17:31:41;31.73;;;24.08;;
51877;SDS011;37911;51.526;11.536;2024-01-10T17:34:49;32.03;;;22.08;;
51877;SDS011;37911;51.526;11.536;2024-01-10T17:37:52;30.60;;;20.55;;
51877;SDS011;37911;51.526;11.536;2024-01-10T17:40:55;36.72;;;24.55;;
51877;SDS011;37911;51.526;11.536;2024-01-10T17:47:02;38.53;;;25.67;;
51877;SDS011;37911;51.526;11.536;2024-01-10T17:50:09;33.17;;;21.63;;
51877;SDS011;37911;51.526;11.536;2024-01-10T17:53:13;51.17;;;34.25;;
51877;SDS011;37911;51.526;11.536;2024-01-10T17:59:19;30.20;;;20.95;;
51877;SDS011;37911;51.526;11.536;2024-01-10T18:02:23;38.17;;;20.17;;
51877;SDS011;37911;51.526;11.536;2024-01-10T18:05:29;42.97;;;27.27;;
51877;SDS011;37911;51.526;11.536;2024-01-10T18:08:32;37.53;;;25.38;;
51877;SDS011;37911;51.526;11.536;2024-01-10T18:11:36;36.05;;;23.38;;
51877;SDS011;37911;51.526;11.536;2024-01-10T18:14:39;31.75;;;23.38;;
51877;SDS011;37911;51.526;11.536;2024-01-10T18:17:43;30.98;;;23.77;;
51877;SDS011;37911;51.526;11.536;2024-01-10T18:20:49;34.70;;;27.75;;
51877;SDS011;37911;51.526;11.536;2024-01-10T18:23:53;39.60;;;24.20;;
51877;SDS011;37911;51.526;11.536;2024-01-10T18:26:57;41.85;;;28.77;;
51877;SDS011;37911;51.526;11.536;2024-01-10T18:30:04;39.08;;;23.63;;
51877;SDS011;37911;51.526;11.536;2024-01-10T18:33:09;33.08;;;23.67;;
51877;SDS011;37911;51.526;11.536;2024-01-10T18:36:15;31.55;;;25.35;;
51877;SDS011;37911;51.526;11.536;2024-01-10T18:39:18;39.40;;;28.15;;
51877;SDS011;37911;51.526;11.536;2024-01-10T18:42:22;32.72;;;21.27;;
51877;SDS011;37911;51.526;11.536;2024-01-10T18:45:26;43.83;;;28.48;;
51877;SDS011;37911;51.526;11.536;2024-01-10T18:48:29;38.35;;;28.00;;
51877;SDS011;37911;51.526;11.536;2024-01-10T18:51:35;33.35;;;24.58;;
51877;SDS011;37911;51.526;11.536;2024-01-10T18:54:39;43.83;;;24.27;;
51877;SDS011;37911;51.526;11.536;2024-01-10T18:57:43;33.25;;;25.65;;
51877;SDS011;37911;51.526;11.536;2024-01-10T19:00:47;40.53;;;28.48;;